Time;durP1;ratioP1;P1;durP2;ratioP2;P2;SDS_P1;SDS_P2;PMS_P1;PMS_P2;Temp;Humidity;BMP_temperature;BMP_pressure;BME280_temperature;BME280_humidity;BME280_pressure;Samples;Min_cycle;Max_cycle;Signal;HPM_P1;HPM_P2
2023/07/14 00:01:46;;;;;;;5.43;2.50;;;;;;;;;;5012466;28;20223;-83
2023/07/14 00:04:15;;;;;;;1.10;1.10;;;;;;;;;;5012182;28;20239;-83
2023/07/14 00:06:45;;;;;;;3.73;2.50;;;;;;;;;;5012758;28;20207;-83
2023/07/14 00:09:17;;;;;;;1.70;1.43;;;;;;;;;;5012378;28;20204;-83
2023/07/14 00:11:46;;;;;;;2.20;1.33;;;;;;;;;;5012440;28;20196;-83
2023/07/14 00:14:16;;;;;;;5.90;2.33;;;;;;;;;;5012068;28;20207;-83
2023/07/14 00:16:45;;;;;;;2.70;1.53;;;;;;;;;;5012395;28;20199;-83
2023/07/14 00:19:15;;;;;;;3.80;2.00;;;;;;;;;;5012208;28;20196;-83
2023/07/14 00:21:44;;;;;;;1.37;1.27;;;;;;;;;;5011505;28;20219;-83
2023/07/14 00:24:13;;;;;;;5.00;2.37;;;;;;;;;;5012387;28;20216;-83
2023/07/14 00:26:42;;;;;;;5.47;2.20;;;;;;;;;;5012485;28;20200;-83
2023/07/14 00:29:28;;;;;;;4.37;2.53;;;;;;;;;;5012334;28;20250;-82
2023/07/14 00:31:57;;;;;;;1.70;0.93;;;;;;;;;;5011701;28;20242;-82
2023/07/14 00:34:25;;;;;;;1.43;1.10;;;;;;;;;;4992917;28;20232;-82
2023/07/14 00:36:54;;;;;;;9.57;2.23;;;;;;;;;;4992416;28;20244;-82
2023/07/14 00:39:23;;;;;;;2.00;1.03;;;;;;;;;;4992082;28;20208;-82
2023/07/14 00:41:51;;;;;;;2.77;1.70;;;;;;;;;;4991981;28;20220;-82
2023/07/14 00:44:21;;;;;;;0.70;0.70;;;;;;;;;;4992251;28;20205;-81
2023/07/14 00:46:50;;;;;;;2.93;1.57;;;;;;;;;;4992664;28;20207;-81
2023/07/14 00:49:23;;;;;;;3.67;2.20;;;;;;;;;;4991905;28;20200;-80
2023/07/14 00:51:52;;;;;;;0.53;0.53;;;;;;;;;;4992480;28;20196;-81
2023/07/14 00:54:25;;;;;;;4.13;2.07;;;;;;;;;;4992277;28;20208;-82
2023/07/14 00:56:55;;;;;;;9.00;2.63;;;;;;;;;;4991623;28;20204;-82
2023/07/14 00:59:30;;;;;;;3.07;1.47;;;;;;;;;;4992892;28;20224;-82
2023/07/14 01:02:18;;;;;;;2.67;1.80;;;;;;;;;;4991910;28;20238;-82
2023/07/14 01:04:49;;;;;;;2.10;1.43;;;;;;;;;;4991723;28;20204;-82
2023/07/14 01:07:18;;;;;;;1.83;1.00;;;;;;;;;;4991951;28;20196;-83
2023/07/14 01:09:47;;;;;;;3.23;1.27;;;;;;;;;;4991887;28;20188;-83
2023/07/14 01:12:18;;;;;;;2.53;1.17;;;;;;;;;;4992430;28;20204;-83
2023/07/14 01:14:49;;;;;;;6.93;2.20;;;;;;;;;;4991755;28;20207;-82
2023/07/14 01:17:18;;;;;;;7.43;3.20;;;;;;;;;;4992417;28;20205;-82
2023/07/14 01:19:50;;;;;;;8.40;3.10;;;;;;;;;;4991870;28;20208;-82
2023/07/14 01:22:22;;;;;;;14.63;4.10;;;;;;;;;;4991524;28;20220;-82
2023/07/14 01:24:55;;;;;;;4.13;1.87;;;;;;;;;;4992061;28;20201;-82
2023/07/14 01:27:25;;;;;;;4.70;2.93;;;;;;;;;;4992277;28;20276;-82
2023/07/14 01:29:56;;;;;;;8.17;3.43;;;;;;;;;;4992083;28;20211;-83
2023/07/14 01:32:26;;;;;;;4.13;2.00;;;;;;;;;;4992263;28;20199;-82
2023/07/14 01:34:55;;;;;;;10.63;4.20;;;;;;;;;;4995916;28;20215;-80
2023/07/14 01:37:24;;;;;;;10.97;3.20;;;;;;;;;;4995973;28;20279;-81
2023/07/14 01:39:53;;;;;;;6.67;3.03;;;;;;;;;;4995789;28;20209;-81
2023/07/14 01:42:23;;;;;;;13.07;3.90;;;;;;;;;;4995512;28;20342;-82
2023/07/14 01:44:53;;;;;;;4.20;2.77;;;;;;;;;;4995860;28;20204;-82
2023/07/14 01:47:22;;;;;;;7.60;3.60;;;;;;;;;;4995652;28;20211;-82
2023/07/14 01:49:52;;;;;;;8.13;4.27;;;;;;;;;;4995327;28;20208;-82
2023/07/14 01:52:23;;;;;;;5.27;3.13;;;;;;;;;;4995604;28;20199;-83
2023/07/14 01:54:53;;;;;;;6.50;2.90;;;;;;;;;;4995521;28;20205;-81
2023/07/14 01:57:24;;;;;;;6.53;2.97;;;;;;;;;;4994926;28;20204;-81
2023/07/14 01:59:57;;;;;;;7.53;1.43;;;;;;;;;;4995360;28;20206;-81
2023/07/14 02:02:27;;;;;;;3.27;1.30;;;;;;;;;;4995153;28;20231;-81
2023/07/14 02:04:55;;;;;;;4.87;3.07;;;;;;;;;;4995048;28;20404;-81
2023/07/14 02:07:24;;;;;;;8.83;4.07;;;;;;;;;;4995090;28;20205;-81
2023/07/14 02:09:55;;;;;;;9.33;3.50;;;;;;;;;;4995511;28;20204;-81
2023/07/14 02:12:27;;;;;;;7.00;3.67;;;;;;;;;;4995135;28;20207;-81
2023/07/14 02:14:59;;;;;;;5.17;3.60;;;;;;;;;;4994989;28;20211;-81
2023/07/14 02:17:30;;;;;;;7.57;3.90;;;;;;;;;;4994844;28;20216;-83
2023/07/14 02:20:00;;;;;;;12.03;4.13;;;;;;;;;;4995430;28;20199;-81
2023/07/14 02:22:29;;;;;;;7.90;2.93;;;;;;;;;;4994394;28;20222;-81
2023/07/14 02:24:57;;;;;;;9.43;3.97;;;;;;;;;;4994536;28;20203;-81
2023/07/14 02:27:26;;;;;;;7.73;4.10;;;;;;;;;;4994981;28;20241;-81
2023/07/14 02:29:55;;;;;;;12.37;4.20;;;;;;;;;;4994823;28;20196;-81
2023/07/14 02:32:27;;;;;;;8.87;3.80;;;;;;;;;;4996048;28;20319;-81
2023/07/14 02:35:01;;;;;;;5.73;3.93;;;;;;;;;;4995105;28;20270;-81
2023/07/14 02:37:43;;;;;;;4.80;3.00;;;;;;;;;;4995140;28;20207;-81
2023/07/14 02:40:12;;;;;;;8.27;2.37;;;;;;;;;;4994591;28;20247;-81
2023/07/14 02:42:40;;;;;;;2.70;1.90;;;;;;;;;;4994173;28;20248;-81
2023/07/14 02:45:10;;;;;;;2.10;1.93;;;;;;;;;;4994190;28;20219;-81
2023/07/14 02:47:41;;;;;;;1.80;1.70;;;;;;;;;;4994666;28;20205;-81
2023/07/14 02:50:09;;;;;;;6.33;2.97;;;;;;;;;;4994525;28;20204;-81
2023/07/14 02:52:38;;;;;;;7.80;3.07;;;;;;;;;;4994283;28;20200;-81
2023/07/14 02:55:07;;;;;;;4.67;3.67;;;;;;;;;;4994282;28;20208;-81
2023/07/14 02:57:35;;;;;;;7.83;4.10;;;;;;;;;;4993688;28;20243;-81
2023/07/14 03:00:07;;;;;;;4.60;3.27;;;;;;;;;;4994477;28;20207;-81
2023/07/14 03:02:36;;;;;;;5.77;3.40;;;;;;;;;;4993966;28;20220;-81
2023/07/14 03:05:06;;;;;;;2.17;2.03;;;;;;;;;;4994380;28;20203;-81
2023/07/14 03:07:35;;;;;;;15.07;5.33;;;;;;;;;;4993529;28;20200;-81
2023/07/14 03:10:04;;;;;;;4.57;3.87;;;;;;;;;;4993974;28;20230;-81
2023/07/14 03:12:32;;;;;;;16.00;10.10;;;;;;;;;;4994421;28;20208;-81
2023/07/14 03:15:01;;;;;;;7.13;4.60;;;;;;;;;;4993948;28;20222;-81
2023/07/14 03:17:29;;;;;;;4.87;3.13;;;;;;;;;;4994379;28;20234;-81
2023/07/14 03:19:58;;;;;;;6.50;4.50;;;;;;;;;;4994225;28;20207;-81
2023/07/14 03:22:30;;;;;;;6.07;4.53;;;;;;;;;;4993461;28;20207;-81
2023/07/14 03:25:01;;;;;;;8.43;4.27;;;;;;;;;;4993740;28;20208;-81
2023/07/14 03:27:29;;;;;;;1.43;1.33;;;;;;;;;;4993691;28;20227;-81
2023/07/14 03:29:58;;;;;;;8.37;4.90;;;;;;;;;;4993919;28;20203;-81
2023/07/14 03:32:26;;;;;;;11.67;4.93;;;;;;;;;;4993492;28;20199;-81
2023/07/14 03:34:55;;;;;;;5.37;3.83;;;;;;;;;;4994075;28;20210;-81
2023/07/14 03:37:23;;;;;;;6.97;4.57;;;;;;;;;;4993625;28;20211;-81
2023/07/14 03:39:53;;;;;;;10.03;5.00;;;;;;;;;;4993512;28;20206;-81
2023/07/14 03:42:21;;;;;;;6.17;4.70;;;;;;;;;;4993086;28;20266;-81
2023/07/14 03:44:50;;;;;;;10.70;4.70;;;;;;;;;;4994063;28;20203;-81
2023/07/14 03:47:18;;;;;;;9.33;4.77;;;;;;;;;;4993456;28;20218;-81
2023/07/14 03:49:47;;;;;;;5.80;4.90;;;;;;;;;;4993118;28;20215;-81
2023/07/14 03:52:15;;;;;;;5.27;4.27;;;;;;;;;;4993437;28;20294;-81
2023/07/14 03:54:44;;;;;;;5.47;3.60;;;;;;;;;;4993435;28;20204;-81
2023/07/14 03:57:14;;;;;;;3.77;3.40;;;;;;;;;;4992393;28;20200;-81
2023/07/14 03:59:43;;;;;;;8.23;4.23;;;;;;;;;;4992693;28;20199;-81
2023/07/14 04:02:11;;;;;;;5.60;4.40;;;;;;;;;;4993217;28;20207;-81
2023/07/14 04:04:40;;;;;;;7.83;3.87;;;;;;;;;;4992583;28;20219;-81
2023/07/14 04:07:08;;;;;;;8.77;4.63;;;;;;;;;;4992575;28;20252;-81
2023/07/14 04:09:37;;;;;;;7.17;3.93;;;;;;;;;;4992929;28;20213;-81
2023/07/14 04:12:06;;;;;;;3.53;2.67;;;;;;;;;;4992862;28;20207;-81
2023/07/14 04:14:36;;;;;;;5.23;2.77;;;;;;;;;;4992774;28;20211;-81
2023/07/14 04:17:05;;;;;;;7.20;4.17;;;;;;;;;;4992568;28;20196;-81
2023/07/14 04:19:33;;;;;;;9.83;5.27;;;;;;;;;;4993154;28;20235;-81
2023/07/14 04:22:02;;;;;;;5.60;3.97;;;;;;;;;;4992371;28;20212;-81
2023/07/14 04:24:31;;;;;;;7.37;3.77;;;;;;;;;;4992303;28;20219;-81
2023/07/14 04:27:00;;;;;;;6.00;5.00;;;;;;;;;;4993003;28;20209;-81
2023/07/14 04:29:29;;;;;;;7.90;4.27;;;;;;;;;;4992715;28;20203;-81
2023/07/14 04:31:59;;;;;;;6.30;4.63;;;;;;;;;;4992505;28;20206;-81
2023/07/14 04:34:27;;;;;;;6.97;4.47;;;;;;;;;;4991928;28;20330;-81
2023/07/14 04:36:56;;;;;;;8.50;5.40;;;;;;;;;;4992610;28;20215;-81
2023/07/14 04:39:25;;;;;;;6.70;4.17;;;;;;;;;;4992671;28;20207;-81
2023/07/14 04:41:55;;;;;;;8.10;4.40;;;;;;;;;;4991980;28;20204;-81
2023/07/14 04:44:23;;;;;;;11.47;6.17;;;;;;;;;;4992309;28;20321;-81
2023/07/14 04:46:52;;;;;;;6.20;4.60;;;;;;;;;;4992507;28;20207;-81
2023/07/14 04:49:25;;;;;;;9.37;4.70;;;;;;;;;;4992227;28;20211;-81
2023/07/14 04:51:54;;;;;;;6.23;3.97;;;;;;;;;;4992017;28;20211;-81
2023/07/14 04:54:23;;;;;;;3.60;2.67;;;;;;;;;;4992220;28;20207;-81
2023/07/14 04:56:55;;;;;;;6.70;3.93;;;;;;;;;;4992121;28;20203;-81
2023/07/14 04:59:24;;;;;;;5.67;3.27;;;;;;;;;;4991953;28;20261;-81
2023/07/14 05:01:52;;;;;;;8.23;4.77;;;;;;;;;;4992809;28;20203;-81
2023/07/14 05:04:20;;;;;;;9.23;5.00;;;;;;;;;;4992104;28;20223;-81
2023/07/14 05:06:54;;;;;;;6.13;4.03;;;;;;;;;;4992458;28;20223;-82
2023/07/14 05:09:35;;;;;;;5.27;4.03;;;;;;;;;;4996066;28;20210;-81
2023/07/14 05:12:05;;;;;;;9.67;6.30;;;;;;;;;;4996487;28;20208;-81
2023/07/14 05:14:34;;;;;;;8.03;4.27;;;;;;;;;;4996592;28;20207;-81
2023/07/14 05:17:02;;;;;;;9.27;4.50;;;;;;;;;;4995675;28;20244;-81
2023/07/14 05:19:31;;;;;;;8.43;5.07;;;;;;;;;;4996243;28;20250;-80
2023/07/14 05:22:01;;;;;;;7.90;4.97;;;;;;;;;;4996304;28;20301;-80
2023/07/14 05:24:29;;;;;;;5.43;3.97;;;;;;;;;;4995720;28;20219;-80
2023/07/14 05:26:59;;;;;;;11.97;3.63;;;;;;;;;;4995913;28;20211;-80
2023/07/14 05:29:28;;;;;;;7.47;6.27;;;;;;;;;;4996205;28;20204;-80
2023/07/14 05:31:56;;;;;;;9.43;5.77;;;;;;;;;;4995627;28;20210;-77
2023/07/14 05:34:25;;;;;;;7.87;6.33;;;;;;;;;;4997464;28;20321;-81
2023/07/14 05:36:54;;;;;;;8.53;4.20;;;;;;;;;;4996119;28;20220;-82
2023/07/14 05:39:23;;;;;;;7.60;4.97;;;;;;;;;;4995888;28;20212;-82
2023/07/14 05:41:52;;;;;;;8.67;5.47;;;;;;;;;;4996953;28;20212;-81
2023/07/14 05:44:21;;;;;;;9.17;6.00;;;;;;;;;;4995597;28;20320;-79
2023/07/14 05:46:50;;;;;;;4.37;2.73;;;;;;;;;;4995784;28;20212;-78
2023/07/14 05:49:18;;;;;;;7.63;5.67;;;;;;;;;;4995548;28;20258;-79
2023/07/14 05:51:47;;;;;;;10.87;4.93;;;;;;;;;;4995675;28;20209;-79
2023/07/14 05:54:15;;;;;;;6.90;4.53;;;;;;;;;;4995414;28;20223;-79
2023/07/14 05:56:46;;;;;;;10.00;5.17;;;;;;;;;;4996610;28;20237;-81
2023/07/14 05:59:14;;;;;;;9.30;5.70;;;;;;;;;;4997033;28;20200;-81
2023/07/14 06:01:43;;;;;;;4.73;3.73;;;;;;;;;;4997619;28;20204;-81
2023/07/14 06:04:11;;;;;;;9.13;3.80;;;;;;;;;;4998023;28;20293;-79
2023/07/14 06:06:40;;;;;;;11.43;5.40;;;;;;;;;;4998281;28;20270;-81
2023/07/14 06:09:09;;;;;;;10.30;4.83;;;;;;;;;;4997595;28;20227;-81
2023/07/14 06:11:37;;;;;;;9.93;5.67;;;;;;;;;;4997931;28;20207;-81
2023/07/14 06:14:08;;;;;;;6.67;4.50;;;;;;;;;;4997672;28;20203;-82
2023/07/14 06:16:37;;;;;;;9.50;3.67;;;;;;;;;;4997424;28;20200;-82
2023/07/14 06:19:06;;;;;;;5.77;3.37;;;;;;;;;;4995880;28;20213;-82
2023/07/14 06:21:35;;;;;;;8.50;5.13;;;;;;;;;;4997017;28;20207;-81
2023/07/14 06:24:07;;;;;;;7.07;3.63;;;;;;;;;;4998057;28;20200;-81
2023/07/14 06:26:36;;;;;;;6.03;3.03;;;;;;;;;;4996868;28;20232;-79
2023/07/14 06:29:04;;;;;;;10.53;5.00;;;;;;;;;;4994824;28;20224;-78
2023/07/14 06:31:34;;;;;;;8.43;4.93;;;;;;;;;;4995073;28;20204;-79
2023/07/14 06:34:03;;;;;;;10.50;6.63;;;;;;;;;;4994178;28;20236;-79
2023/07/14 06:36:31;;;;;;;9.07;4.57;;;;;;;;;;4994464;28;20299;-78
2023/07/14 06:39:00;;;;;;;5.63;3.47;;;;;;;;;;4994925;28;20200;-78
2023/07/14 06:41:28;;;;;;;12.03;5.23;;;;;;;;;;4994360;28;20205;-79
2023/07/14 06:43:57;;;;;;;10.37;6.60;;;;;;;;;;4994627;28;20201;-79
2023/07/14 06:46:44;;;;;;;8.17;5.37;;;;;;;;;;4994538;28;20215;-79
2023/07/14 06:49:12;;;;;;;4.13;3.47;;;;;;;;;;4994666;28;20200;-79
2023/07/14 06:51:50;;;;;;;9.67;4.57;;;;;;;;;;4993958;28;20203;-79
2023/07/14 06:54:20;;;;;;;8.27;5.30;;;;;;;;;;4994381;28;20205;-79
2023/07/14 06:56:52;;;;;;;9.23;6.00;;;;;;;;;;4994163;28;20206;-79
2023/07/14 06:59:20;;;;;;;9.90;6.47;;;;;;;;;;4993830;28;20200;-79
2023/07/14 07:01:51;;;;;;;7.13;4.90;;;;;;;;;;4993959;28;20208;-79
2023/07/14 07:04:20;;;;;;;12.77;6.47;;;;;;;;;;4994162;28;20258;-79
2023/07/14 07:06:48;;;;;;;2.37;2.07;;;;;;;;;;4994529;28;20236;-79
2023/07/14 07:09:17;;;;;;;10.67;5.93;;;;;;;;;;4993357;28;20198;-79
2023/07/14 07:11:48;;;;;;;1.03;1.03;;;;;;;;;;4993995;28;20207;-79
2023/07/14 07:14:17;;;;;;;12.67;6.73;;;;;;;;;;4994147;28;20211;-79
2023/07/14 07:16:45;;;;;;;16.30;5.37;;;;;;;;;;4993851;28;20202;-79
2023/07/14 07:19:16;;;;;;;12.03;5.17;;;;;;;;;;4993489;28;20197;-79
2023/07/14 07:21:45;;;;;;;9.53;5.17;;;;;;;;;;4993402;28;20203;-79
2023/07/14 07:24:13;;;;;;;6.33;4.53;;;;;;;;;;4994111;28;20209;-80
2023/07/14 07:26:42;;;;;;;4.83;1.80;;;;;;;;;;4993631;28;20255;-80
2023/07/14 07:29:10;;;;;;;13.07;5.43;;;;;;;;;;4993748;28;20231;-79
2023/07/14 07:31:39;;;;;;;8.03;5.17;;;;;;;;;;4993168;28;20207;-79
2023/07/14 07:34:08;;;;;;;11.23;6.27;;;;;;;;;;4993371;28;20240;-80
2023/07/14 07:36:38;;;;;;;14.77;6.07;;;;;;;;;;4993371;28;20225;-79
2023/07/14 07:39:07;;;;;;;11.80;4.73;;;;;;;;;;4993543;28;20204;-79
2023/07/14 07:41:36;;;;;;;6.23;1.80;;;;;;;;;;4993266;28;20226;-80
2023/07/14 07:44:05;;;;;;;4.87;3.37;;;;;;;;;;4992688;28;20211;-79
2023/07/14 07:46:33;;;;;;;6.33;5.07;;;;;;;;;;4992987;28;20229;-79
2023/07/14 07:49:02;;;;;;;9.63;5.57;;;;;;;;;;4993380;28;20206;-79
2023/07/14 07:51:31;;;;;;;5.57;3.23;;;;;;;;;;4995399;28;20211;-83
2023/07/14 07:54:03;;;;;;;4.30;3.10;;;;;;;;;;4988092;28;20201;-83
2023/07/14 07:56:31;;;;;;;6.10;3.80;;;;;;;;;;4986535;28;20212;-83
2023/07/14 07:59:00;;;;;;;16.53;3.80;;;;;;;;;;4984317;28;20200;-84
2023/07/14 08:01:29;;;;;;;10.30;4.43;;;;;;;;;;4984245;28;20210;-84
2023/07/14 08:03:58;;;;;;;9.37;3.53;;;;;;;;;;4986212;28;20299;-82
2023/07/14 08:06:27;;;;;;;4.13;2.50;;;;;;;;;;4983215;28;20305;-82
2023/07/14 08:08:58;;;;;;;5.13;2.20;;;;;;;;;;4984053;28;20216;-83
2023/07/14 08:11:27;;;;;;;6.93;3.90;;;;;;;;;;4977851;28;20214;-83
2023/07/14 08:14:01;;;;;;;12.93;5.97;;;;;;;;;;4986453;28;20219;-84
2023/07/14 08:16:37;;;;;;;9.83;5.33;;;;;;;;;;4985381;28;20270;-82
2023/07/14 08:19:06;;;;;;;9.73;3.90;;;;;;;;;;4980751;28;20217;-81
2023/07/14 08:21:37;;;;;;;9.57;4.93;;;;;;;;;;4979126;28;20252;-82
2023/07/14 08:24:06;;;;;;;11.27;6.70;;;;;;;;;;4982968;28;20239;-82
2023/07/14 08:26:39;;;;;;;12.77;5.37;;;;;;;;;;4986581;28;20222;-81
2023/07/14 08:29:09;;;;;;;2.83;2.63;;;;;;;;;;4976493;28;20232;-82
2023/07/14 08:31:40;;;;;;;0.40;0.40;;;;;;;;;;4980934;28;20215;-80
2023/07/14 08:34:14;;;;;;;10.27;4.97;;;;;;;;;;4995509;28;20243;-78
2023/07/14 08:36:48;;;;;;;7.03;4.37;;;;;;;;;;5006356;28;20198;-81
2023/07/14 08:39:17;;;;;;;2.50;1.93;;;;;;;;;;5003187;28;20211;-80
2023/07/14 08:41:51;;;;;;;10.77;2.97;;;;;;;;;;5002990;28;20200;-80
2023/07/14 08:44:29;;;;;;;4.20;2.87;;;;;;;;;;5004310;28;20229;-80
2023/07/14 08:47:01;;;;;;;10.80;5.03;;;;;;;;;;5003011;28;20315;-80
2023/07/14 08:49:33;;;;;;;5.83;3.03;;;;;;;;;;5005580;28;20211;-79
2023/07/14 08:52:03;;;;;;;4.40;1.50;;;;;;;;;;5003557;28;20256;-80
2023/07/14 08:54:41;;;;;;;1.60;1.50;;;;;;;;;;4999302;28;20329;-82
2023/07/14 08:57:16;;;;;;;5.43;3.60;;;;;;;;;;5004908;28;20258;-82
2023/07/14 08:59:46;;;;;;;6.53;3.37;;;;;;;;;;5004653;28;20215;-82
2023/07/14 09:02:18;;;;;;;12.37;5.13;;;;;;;;;;4999234;28;20222;-83
2023/07/14 09:04:52;;;;;;;2.33;2.13;;;;;;;;;;5006459;28;20221;-83
2023/07/14 09:07:20;;;;;;;1.60;1.50;;;;;;;;;;5005307;28;20265;-83
2023/07/14 09:09:54;;;;;;;0.43;0.43;;;;;;;;;;5015647;28;20307;-83
2023/07/14 09:12:28;;;;;;;6.03;1.30;;;;;;;;;;5003830;28;20221;-83
2023/07/14 09:15:01;;;;;;;5.00;3.67;;;;;;;;;;5003294;28;20237;-83
2023/07/14 09:17:38;;;;;;;2.43;1.77;;;;;;;;;;5007164;28;20249;-83
2023/07/14 09:20:13;;;;;;;7.23;3.03;;;;;;;;;;5008853;28;20198;-82
2023/07/14 09:22:46;;;;;;;3.77;2.27;;;;;;;;;;4994710;28;20237;-81
2023/07/14 09:25:20;;;;;;;1.57;1.47;;;;;;;;;;5012581;28;20256;-81
2023/07/14 09:27:50;;;;;;;0.77;0.77;;;;;;;;;;5010813;28;20224;-81
2023/07/14 09:30:21;;;;;;;4.97;2.63;;;;;;;;;;5011684;28;20210;-82
2023/07/14 09:32:53;;;;;;;1.77;1.20;;;;;;;;;;5011384;28;20197;-82
2023/07/14 09:35:24;;;;;;;5.80;2.73;;;;;;;;;;5012074;28;20280;-82
2023/07/14 09:37:56;;;;;;;1.30;1.20;;;;;;;;;;5011087;28;20201;-82
2023/07/14 09:40:28;;;;;;;3.90;1.60;;;;;;;;;;4995639;28;20210;-82
2023/07/14 09:42:59;;;;;;;8.23;2.47;;;;;;;;;;5011158;28;20237;-82
2023/07/14 09:45:29;;;;;;;1.43;1.33;;;;;;;;;;5011165;28;20234;-82
2023/07/14 09:48:01;;;;;;;3.27;2.53;;;;;;;;;;5010709;28;20307;-82
2023/07/14 09:50:30;;;;;;;8.73;3.10;;;;;;;;;;5012087;28;20260;-82
2023/07/14 09:53:02;;;;;;;5.27;2.33;;;;;;;;;;5011450;28;20242;-82
2023/07/14 09:55:32;;;;;;;1.60;1.47;;;;;;;;;;5015524;28;20211;-82
2023/07/14 09:58:03;;;;;;;4.50;2.60;;;;;;;;;;5015559;28;20198;-82
2023/07/14 10:00:40;;;;;;;5.43;2.57;;;;;;;;;;5015956;28;20202;-82
2023/07/14 10:03:17;;;;;;;5.70;2.33;;;;;;;;;;4997759;28;20195;-81
2023/07/14 10:06:04;;;;;;;3.57;2.37;;;;;;;;;;5015575;28;20268;-82
2023/07/14 10:08:34;;;;;;;7.37;3.67;;;;;;;;;;5015702;28;20214;-81
2023/07/14 10:11:14;;;;;;;6.30;3.80;;;;;;;;;;5015610;28;20207;-81
2023/07/14 10:13:54;;;;;;;2.23;1.53;;;;;;;;;;5015591;28;20210;-81
2023/07/14 10:16:23;;;;;;;4.40;3.03;;;;;;;;;;5015420;28;20199;-81
2023/07/14 10:18:54;;;;;;;3.30;1.43;;;;;;;;;;5015332;28;20199;-81
2023/07/14 10:21:28;;;;;;;2.20;2.00;;;;;;;;;;5014795;28;20241;-82
2023/07/14 10:24:07;;;;;;;6.90;3.40;;;;;;;;;;5015402;28;20205;-81
2023/07/14 10:26:37;;;;;;;2.03;1.93;;;;;;;;;;5015469;28;20289;-82
2023/07/14 10:29:07;;;;;;;1.30;1.17;;;;;;;;;;5014353;28;20226;-82
2023/07/14 10:31:39;;;;;;;1.40;1.30;;;;;;;;;;5014296;28;20208;-82
2023/07/14 10:34:23;;;;;;;1.30;1.13;;;;;;;;;;5013816;28;20240;-82
2023/07/14 10:36:54;;;;;;;1.20;0.93;;;;;;;;;;5013974;28;20195;-83
2023/07/14 10:39:31;;;;;;;1.40;1.30;;;;;;;;;;5014333;28;20237;-81
2023/07/14 10:42:00;;;;;;;4.23;2.27;;;;;;;;;;5014454;28;20210;-83
2023/07/14 10:44:32;;;;;;;0.53;0.50;;;;;;;;;;5014813;28;20201;-82
2023/07/14 10:47:04;;;;;;;0.87;0.87;;;;;;;;;;5014603;28;20225;-82
2023/07/14 10:49:36;;;;;;;1.70;1.60;;;;;;;;;;5014503;28;20214;-82
2023/07/14 10:52:06;;;;;;;0.77;0.77;;;;;;;;;;5014771;28;20203;-81
2023/07/14 10:54:42;;;;;;;2.40;2.20;;;;;;;;;;5014493;28;20217;-81
2023/07/14 10:57:15;;;;;;;1.17;1.10;;;;;;;;;;5014207;28;20193;-82
2023/07/14 10:59:48;;;;;;;3.83;1.93;;;;;;;;;;5014324;28;20200;-82
2023/07/14 11:02:21;;;;;;;1.57;0.80;;;;;;;;;;5013771;28;20196;-82
2023/07/14 11:04:54;;;;;;;4.57;2.80;;;;;;;;;;5013227;28;20193;-83
2023/07/14 11:07:30;;;;;;;5.07;1.70;;;;;;;;;;5014045;28;20318;-82
2023/07/14 11:09:59;;;;;;;1.53;1.43;;;;;;;;;;5013744;28;20192;-83
2023/07/14 11:12:39;;;;;;;1.07;1.03;;;;;;;;;;5013416;28;20207;-83
2023/07/14 11:15:16;;;;;;;1.13;0.97;;;;;;;;;;5013771;28;20207;-83
2023/07/14 11:17:51;;;;;;;0.90;0.90;;;;;;;;;;5014347;28;20205;-80
2023/07/14 11:20:22;;;;;;;3.87;1.13;;;;;;;;;;5013373;28;20210;-79
2023/07/14 11:22:57;;;;;;;2.53;1.70;;;;;;;;;;5013142;28;20194;-83
2023/07/14 11:25:28;;;;;;;0.80;0.80;;;;;;;;;;5013609;28;20234;-83
2023/07/14 11:28:00;;;;;;;1.87;1.37;;;;;;;;;;5013513;28;20244;-83
2023/07/14 11:30:31;;;;;;;1.53;1.43;;;;;;;;;;5013183;28;20195;-82
2023/07/14 11:33:08;;;;;;;1.47;1.37;;;;;;;;;;5013570;28;20217;-82
2023/07/14 11:35:37;;;;;;;1.07;0.97;;;;;;;;;;5013221;28;20237;-82
2023/07/14 11:38:14;;;;;;;1.30;1.20;;;;;;;;;;5013204;28;20197;-83
2023/07/14 11:40:44;;;;;;;0.90;0.90;;;;;;;;;;5013189;28;20206;-82
2023/07/14 11:43:16;;;;;;;0.50;0.50;;;;;;;;;;5013564;28;20210;-83
2023/07/14 11:45:47;;;;;;;2.33;0.83;;;;;;;;;;5013050;28;20329;-83
2023/07/14 11:48:25;;;;;;;0.73;0.73;;;;;;;;;;5012923;28;20234;-83
2023/07/14 11:51:05;;;;;;;2.10;1.70;;;;;;;;;;5013179;28;20209;-83
2023/07/14 11:53:34;;;;;;;1.70;0.60;;;;;;;;;;5013067;28;20210;-82
2023/07/14 11:56:14;;;;;;;3.03;0.93;;;;;;;;;;5012424;28;20212;-79
2023/07/14 11:58:45;;;;;;;7.17;1.73;;;;;;;;;;5013106;28;20230;-79
2023/07/14 12:01:18;;;;;;;1.63;1.20;;;;;;;;;;5012935;28;20226;-83
2023/07/14 12:03:54;;;;;;;0.97;0.97;;;;;;;;;;5012489;28;20254;-83
2023/07/14 12:06:25;;;;;;;2.87;2.07;;;;;;;;;;5013049;28;20297;-83
2023/07/14 12:09:01;;;;;;;0.87;0.83;;;;;;;;;;5012609;28;20215;-83
2023/07/14 12:11:31;;;;;;;0.40;0.40;;;;;;;;;;5012427;28;20206;-82
2023/07/14 12:14:25;;;;;;;2.80;2.53;;;;;;;;;;5012353;28;20198;-83
2023/07/14 12:16:57;;;;;;;3.40;2.40;;;;;;;;;;5011661;28;20278;-82
2023/07/14 12:19:32;;;;;;;3.73;3.20;;;;;;;;;;5012550;28;20230;-82
2023/07/14 12:22:06;;;;;;;2.50;2.13;;;;;;;;;;5011668;28;20190;-82
2023/07/14 12:24:38;;;;;;;5.03;2.03;;;;;;;;;;5012280;28;20248;-83
2023/07/14 12:27:23;;;;;;;1.90;1.80;;;;;;;;;;5012439;28;20263;-82
2023/07/14 12:29:52;;;;;;;5.37;3.30;;;;;;;;;;5012038;28;20205;-82
2023/07/14 12:32:25;;;;;;;5.87;3.87;;;;;;;;;;5012307;28;20199;-81
2023/07/14 12:34:59;;;;;;;6.20;3.47;;;;;;;;;;5012342;28;20270;-80
2023/07/14 12:37:33;;;;;;;8.43;4.73;;;;;;;;;;5012196;28;20217;-81
2023/07/14 12:40:03;;;;;;;5.17;3.33;;;;;;;;;;5011754;28;20219;-81
2023/07/14 12:42:33;;;;;;;8.23;4.67;;;;;;;;;;5012104;28;20261;-81
2023/07/14 12:45:03;;;;;;;4.20;2.67;;;;;;;;;;5013116;28;20233;-80
2023/07/14 12:47:34;;;;;;;5.03;3.10;;;;;;;;;;5011557;28;20258;-82
2023/07/14 12:50:05;;;;;;;2.73;2.37;;;;;;;;;;5012380;28;20202;-83
2023/07/14 12:52:35;;;;;;;8.23;4.60;;;;;;;;;;5011704;28;20202;-82
2023/07/14 12:55:05;;;;;;;6.43;4.03;;;;;;;;;;5011648;28;20260;-81
2023/07/14 12:57:39;;;;;;;2.23;1.93;;;;;;;;;;5011694;28;20200;-82
2023/07/14 13:00:19;;;;;;;8.87;4.23;;;;;;;;;;5012436;28;20203;-82
2023/07/14 13:02:49;;;;;;;8.83;2.90;;;;;;;;;;5011562;28;20283;-82
2023/07/14 13:05:33;;;;;;;5.33;2.43;;;;;;;;;;5011595;28;20204;-82
2023/07/14 13:08:06;;;;;;;2.63;2.30;;;;;;;;;;5011987;28;20210;-82
2023/07/14 13:10:38;;;;;;;2.93;2.03;;;;;;;;;;5012096;28;20282;-82
2023/07/14 13:13:14;;;;;;;4.33;2.63;;;;;;;;;;5011452;28;20204;-81
2023/07/14 13:15:46;;;;;;;8.47;4.40;;;;;;;;;;5011930;28;20260;-81
2023/07/14 13:18:21;;;;;;;3.63;3.03;;;;;;;;;;5012201;28;20202;-82
2023/07/14 13:21:00;;;;;;;2.33;2.07;;;;;;;;;;5011830;28;20201;-82
2023/07/14 13:23:29;;;;;;;5.67;4.80;;;;;;;;;;5011758;28;20224;-82
2023/07/14 13:26:13;;;;;;;1.93;1.50;;;;;;;;;;5011921;28;20255;-83
2023/07/14 13:29:00;;;;;;;6.87;4.43;;;;;;;;;;5013050;28;20327;-82
2023/07/14 13:31:29;;;;;;;7.67;3.40;;;;;;;;;;5012581;28;20214;-82
2023/07/14 13:34:03;;;;;;;3.63;2.50;;;;;;;;;;5015608;28;20240;-82
2023/07/14 13:36:36;;;;;;;3.93;3.30;;;;;;;;;;5015867;28;20208;-82
2023/07/14 13:39:08;;;;;;;4.77;2.37;;;;;;;;;;5015053;28;20320;-82
2023/07/14 13:41:46;;;;;;;4.13;3.40;;;;;;;;;;5015145;28;20199;-82
2023/07/14 13:44:45;;;;;;;4.10;2.93;;;;;;;;;;5015845;28;20200;-82
2023/07/14 13:47:16;;;;;;;7.67;4.07;;;;;;;;;;4935253;29;20206;-82
2023/07/14 13:49:47;;;;;;;5.67;4.53;;;;;;;;;;5001017;28;20224;-81
2023/07/14 13:52:18;;;;;;;4.17;3.77;;;;;;;;;;5014821;28;20229;-81
2023/07/14 13:54:54;;;;;;;2.63;1.67;;;;;;;;;;5015460;28;20307;-82
2023/07/14 13:57:25;;;;;;;6.10;3.27;;;;;;;;;;5014810;28;20300;-81
2023/07/14 13:59:55;;;;;;;5.77;3.30;;;;;;;;;;5015225;28;20198;-81
2023/07/14 14:02:29;;;;;;;2.90;2.33;;;;;;;;;;5015776;28;20213;-81
2023/07/14 14:05:03;;;;;;;2.10;1.43;;;;;;;;;;5014967;28;20227;-81
2023/07/14 14:07:45;;;;;;;3.43;2.97;;;;;;;;;;5014894;28;20206;-81
2023/07/14 14:10:15;;;;;;;4.13;3.17;;;;;;;;;;5014583;28;20211;-82
2023/07/14 14:12:47;;;;;;;4.00;2.73;;;;;;;;;;5014800;28;20229;-81
2023/07/14 14:15:17;;;;;;;4.63;3.70;;;;;;;;;;5014504;28;20209;-82
2023/07/14 14:17:53;;;;;;;3.40;1.77;;;;;;;;;;5014602;28;20210;-82
2023/07/14 14:20:24;;;;;;;6.17;4.30;;;;;;;;;;5015075;28;20206;-82
2023/07/14 14:22:55;;;;;;;7.20;4.43;;;;;;;;;;5014063;28;20207;-82
2023/07/14 14:25:31;;;;;;;4.97;3.23;;;;;;;;;;5015372;28;20203;-82
2023/07/14 14:28:03;;;;;;;4.20;3.10;;;;;;;;;;5014859;28;20231;-81
2023/07/14 14:30:34;;;;;;;1.17;0.90;;;;;;;;;;5014421;28;20229;-82
2023/07/14 14:33:10;;;;;;;5.90;5.27;;;;;;;;;;5014070;28;20203;-82
2023/07/14 14:35:41;;;;;;;3.87;2.23;;;;;;;;;;5014344;28;20296;-82
2023/07/14 14:38:13;;;;;;;5.90;2.60;;;;;;;;;;5014754;28;20218;-81
2023/07/14 14:41:00;;;;;;;2.60;2.40;;;;;;;;;;5012999;28;20234;-82
2023/07/14 14:43:31;;;;;;;2.70;2.23;;;;;;;;;;5014269;28;20207;-83
2023/07/14 14:46:03;;;;;;;2.60;2.10;;;;;;;;;;5014798;28;20211;-82
2023/07/14 14:48:35;;;;;;;5.20;3.53;;;;;;;;;;5013740;28;20298;-82
2023/07/14 14:51:07;;;;;;;3.60;2.67;;;;;;;;;;5014545;28;20199;-81
2023/07/14 14:53:37;;;;;;;1.90;1.80;;;;;;;;;;5014318;28;20309;-82
2023/07/14 14:56:16;;;;;;;3.40;2.83;;;;;;;;;;5014096;28;20206;-82
2023/07/14 14:58:52;;;;;;;7.40;3.53;;;;;;;;;;5014117;28;20213;-82
2023/07/14 15:01:27;;;;;;;8.17;4.63;;;;;;;;;;5014319;28;20205;-82
2023/07/14 15:04:03;;;;;;;5.80;3.23;;;;;;;;;;5014205;28;20268;-82
2023/07/14 15:07:06;;;;;;;6.90;3.00;;;;;;;;;;5013650;28;20286;-82